AirNav   TITAN Aviation Fuels
 
 1740 users online  

8MO2 Liberty Hospital Heliport
Liberty, Missouri, USA

GOING TO LIBERTY?


FAA INFORMATION EFFECTIVE 17 JUNE 2021

Location

FAA Identifier: 8MO2
Lat/Long: 39-16-26.4100N 094-25-28.0100W
39-16.440167N 094-25.466833W
39.2740028,-94.4244472
(estimated)
Elevation: 925 ft. / 282 m (estimated)
Variation: 05E (1990)
From city: 1 mile NE of LIBERTY, MO
Time zone: UTC -5 (UTC -6 during Standard Time)
Zip code: 64068

Heliport Operations

Heliport use: Private use, MEDICAL USE.
Activation date: 02/1993
Control tower: no
ARTCC: KANSAS CITY CENTER
FSS: COLUMBIA FLIGHT SERVICE STATION
Attendance: UNATNDD
Wind indicator: yes
Segmented circle: yes

Heliport Communications

WX AWOS-3 at GPH (6 nm NE): 120.275 (816-407-3399)
WX ASOS at MKC (12 nm SW): PHONE 816-329-2843
WX ASOS at MCI (14 nm W): PHONE 816-329-2808
WX ASOS at LXT (19 nm S): 124.175 (816-347-9807)

Nearby radio navigation aids

VOR radial/distance  VOR name  Freq  Var
MCIr088/14.5KANSAS CITY VORTAC113.2505E
ANXr301/17.4NAPOLEON VORTAC114.0007E
BQSr227/33.2BRAYMER VOR/DME111.2003E

Heliport Services

Runway Information

Helipad H1

Dimensions: 35 x 35 ft. / 11 x 11 m
Surface: concrete
Latitude: 39-16.440167N
Longitude: 094-25.466833W
Elevation: 925.0 ft.
Traffic pattern: leftleft

Heliport Ownership and Management from official FAA records

Ownership: Privately-owned
Owner: LIBERTY HOSPITAL
2525 GLENN HENDREN DRIVE
LIBERTY, MO 64068
Phone 816-781-7200
Manager: DAVID H. FEESS
2525 GLENN HENDREN DRIVE
LIBERTY, MO 64068
Phone 816-781-7200
ADDITIONAL CONTACT: CAROLYN WELLS 816-792-7248: CAROLYN.WELLS@LIBERTYHOSPITAL.ORG

Additional Remarks

FOR CD CTC KANSAS CITY APCH AT 816-329-2710.

Instrument Procedures

There are no published instrument procedures at 8MO2.

Some nearby airports with instrument procedures:

KGPH - Midwest National Air Center Airport (6 nm NE)
3EX - Excelsior Springs Memorial Airport (11 nm E)
KMKC - Charles B Wheeler Downtown Airport (12 nm SW)
KMCI - Kansas City International Airport (14 nm W)
3GV - East Kansas City Airport (18 nm SE)
KLXT - Lee's Summit Municipal Airport (19 nm S)
 
Loc | Ops | Rwys | IFR | FBO | Links
Com | Nav | Svcs | Stats | Notes
Area around 8MO2 (Liberty Hospital Heliport)
 
Road maps at: MapQuest Bing Google
 
Aerial photo
No photo
 
Sectional chart

 
Airport distance calculator
Flying to Liberty Hospital Heliport? Find the distance to fly.

From to 8MO2

Sunrise and sunset
Times for 24-Jun-2021
 Local
(UTC-5)
 Zulu
(UTC)
Morning civil twilight05:2110:21
Sunrise05:5310:53
Sunset20:4701:47
Evening civil twilight21:1902:19

Current date and time
Zulu (UTC)  24-Jun-2021 20:06:55
Local (UTC-5)  24-Jun-2021 15:06:55
 
METAR
KGPH 
6nm NE 
241955Z AUTO 16006KT 10SM 26/22 A2985 RMK AO2 LTG DSNT S AND SW
KMKC 
12nm SW 
241954Z 15007KT 110V180 10SM CLR 29/23 A2983 RMK AO2 SLP092 T02940233
KMCI 
14nm W 
241953Z 15012KT 9SM FEW023 SCT130 OVC250 29/23 A2983 RMK AO2 SLP088 T02890233
KLXT 
19nm S 
241953Z AUTO 15010KT 10SM SCT019 BKN025 27/24 A2985 RMK AO2 SLP098 T02720239
TAF
KMKC 
12nm SW 
241738Z 2418/2518 14012G21KT P6SM SCT016 BKN021 FM241900 18013G21KT P6SM SCT030 BKN060 FM250000 18011KT P6SM VCTS SCT030 BKN060CB TEMPO 2501/2504 2SM TSRA BR OVC025CB FM250500 16013KT P6SM VCTS BKN040CB FM251000 20008KT P6SM BKN070
KMCI 
14nm W 
241738Z 2418/2518 14013KT P6SM FEW011 SCT018 OVC130 FM241900 18013G21KT P6SM SCT030 BKN060 FM250000 18011KT P6SM VCTS SCT030 BKN060CB TEMPO 2501/2504 2SM TSRA BR OVC025CB FM250500 16013KT P6SM VCTS BKN040CB FM251000 20008KT P6SM BKN070
NOTAMs
Click for the latest NOTAMs
NOTAMs are issued by the DoD/FAA and will open in a separate window not controlled by AirNav.

 

 
 

Would you like to see your business listed on this page?

 If your business provides an interesting product or service to pilots, flight crews, aircraft, or users of the Liberty Hospital Heliport, you should consider listing it here.  To start the listing process, click on the button below
 
Add a business
 

Other Pages about Liberty Hospital Heliport

Update a link
 
Copyright © AirNav, LLC. All rights reserved. Privacy Policy  Contact